Time;durP1;ratioP1;P1;durP2;ratioP2;P2;SDS_P1;SDS_P2;PMS_P1;PMS_P2;Temp;Humidity;BMP_temperature;BMP_pressure;BME280_temperature;BME280_humidity;BME280_pressure;Samples;Min_cycle;Max_cycle;Signal;HPM_P1;HPM_P2
2023/03/14 00:06:56;;;;;;;9.50;4.50;;;;;;;6.90;75.78;97581.64;273813;1268;23023;-84
2023/03/14 00:12:58;;;;;;;12.00;5.40;;;;;;;6.87;76.05;97570.74;272914;1267;22524;-84
2023/03/14 00:19:34;;;;;;;11.90;5.00;;;;;;;6.86;76.19;97561.34;270383;1269;23315;-83
2023/03/14 00:25:38;;;;;;;12.00;5.30;;;;;;;6.81;76.36;97561.64;274028;1275;22167;-83
2023/03/14 00:32:01;;;;;;;11.00;5.50;;;;;;;6.65;76.90;97554.42;273788;1269;22267;-83
2023/03/14 00:38:02;;;;;;;13.70;4.40;;;;;;;6.54;76.93;97539.17;272667;1259;23318;-83
2023/03/14 00:44:04;;;;;;;8.30;3.80;;;;;;;6.37;76.79;97523.80;270481;1272;22514;-84
2023/03/14 00:50:14;;;;;;;15.50;5.40;;;;;;;6.21;76.95;97521.80;270441;1272;22519;-84
2023/03/14 00:56:30;;;;;;;9.00;4.20;;;;;;;6.12;77.15;97511.43;270179;1269;22293;-84
2023/03/14 01:02:54;;;;;;;14.70;5.00;;;;;;;6.17;77.19;97489.48;271152;1269;22629;-83
2023/03/14 01:08:57;;;;;;;22.80;8.40;;;;;;;6.47;77.08;97462.17;273291;1270;22249;-82
2023/03/14 01:14:59;;;;;;;20.50;6.90;;;;;;;7.31;76.02;97426.08;270492;1268;22566;-84
2023/03/14 01:21:21;;;;;;;17.80;5.40;;;;;;;7.62;75.64;97412.67;269565;1269;22688;-83
2023/03/14 01:27:43;;;;;;;7.70;3.30;;;;;;;7.26;75.15;97399.59;269805;1270;25509;-84
2023/03/14 01:33:51;;;;;;;3.90;2.60;;;;;;;6.66;75.51;97396.80;269659;1270;22605;-83
2023/03/14 01:39:53;;;;;;;5.50;2.80;;;;;;;6.47;76.12;97389.95;269421;1270;24377;-84
2023/03/14 01:46:05;;;;;;;8.40;3.20;;;;;;;6.38;76.47;97390.02;270897;1269;22245;-84
2023/03/14 01:52:14;;;;;;;5.90;2.80;;;;;;;6.27;76.75;97377.02;271007;1269;22537;-83
2023/03/14 01:58:16;;;;;;;6.30;2.80;;;;;;;6.12;77.06;97372.63;269764;1272;22529;-84
2023/03/14 02:04:19;;;;;;;5.90;2.70;;;;;;;5.89;77.20;97367.67;270254;1270;22590;-84
2023/03/14 02:11:07;;;;;;;6.40;2.90;;;;;;;5.90;77.82;97347.66;273721;1270;22817;-84
2023/03/14 02:17:51;;;;;;;5.40;3.10;;;;;;;6.15;78.03;97334.77;273191;1263;22536;-84
2023/03/14 02:24:56;;;;;;;3.50;2.20;;;;;;;6.50;77.77;97312.44;270103;1259;24319;-84
2023/03/14 02:31:00;;;;;;;3.10;2.00;;;;;;;6.93;77.50;97295.31;270905;1270;23857;-83
2023/03/14 02:37:34;;;;;;;6.60;2.80;;;;;;;7.53;76.82;97272.95;270058;1259;22546;-83
2023/03/14 02:43:36;;;;;;;8.70;2.70;;;;;;;8.52;74.91;97255.33;269864;1269;22520;-83
2023/03/14 02:49:47;;;;;;;7.00;2.30;;;;;;;9.29;73.24;97249.92;273638;1269;22262;-83
2023/03/14 02:55:49;;;;;;;5.40;2.00;;;;;;;9.79;71.52;97247.02;270373;1262;22577;-83
2023/03/14 03:01:52;;;;;;;4.70;2.00;;;;;;;10.21;69.34;97231.67;272040;1268;22909;-83
2023/03/14 03:07:54;;;;;;;3.60;1.80;;;;;;;10.54;67.36;97217.61;271705;1259;22343;-83
2023/03/14 03:13:56;;;;;;;6.60;3.10;;;;;;;10.78;67.50;97219.83;271555;1267;22550;-85
2023/03/14 03:20:28;;;;;;;7.40;2.00;;;;;;;10.89;66.47;97214.57;270947;1272;25591;-83
2023/03/14 03:26:57;;;;;;;2.50;1.40;;;;;;;11.06;65.39;97207.53;273422;1259;22235;-84
2023/03/14 03:33:03;;;;;;;4.40;1.50;;;;;;;11.02;65.55;97215.88;272542;1269;23726;-83
2023/03/14 03:39:53;;;;;;;4.90;1.50;;;;;;;10.88;65.33;97209.41;272777;1271;22967;-84
2023/03/14 03:46:52;;;;;;;5.60;1.60;;;;;;;10.43;64.93;97203.88;273734;1272;23402;-83
2023/03/14 03:53:04;;;;;;;3.80;1.90;;;;;;;9.87;65.22;97212.70;273741;1276;22243;-84
2023/03/14 03:59:52;;;;;;;19.60;5.80;;;;;;;9.19;66.07;97229.11;273737;1272;22961;-83
2023/03/14 04:06:18;;;;;;;11.20;5.10;;;;;;;8.40;66.89;97254.83;273741;1259;22872;-83
2023/03/14 04:12:23;;;;;;;11.70;4.70;;;;;;;7.87;67.70;97255.67;273624;1275;23022;-84
2023/03/14 04:18:57;;;;;;;8.80;4.50;;;;;;;7.46;68.52;97262.27;273827;1264;22332;-84
2023/03/14 04:24:59;;;;;;;10.00;4.80;;;;;;;7.13;68.80;97263.64;272147;1269;22644;-84
2023/03/14 04:34:45;;;;;;;10.50;5.70;;;;;;;6.91;69.82;97277.98;264106;1308;548046;-84
2023/03/14 04:40:47;;;;;;;13.50;5.50;;;;;;;6.78;70.68;97276.45;268771;1280;22651;-84
2023/03/14 04:46:50;;;;;;;14.40;7.20;;;;;;;6.53;71.50;97288.12;268985;1277;134824;-84
2023/03/14 04:52:52;;;;;;;13.90;5.40;;;;;;;6.20;72.13;97307.83;272281;1277;22651;-83
2023/03/14 04:59:02;;;;;;;11.00;6.00;;;;;;;6.04;72.45;97300.43;272304;1279;22392;-84
2023/03/14 05:05:05;;;;;;;12.70;6.20;;;;;;;5.90;72.79;97295.75;272019;1278;22273;-84
2023/03/14 05:11:59;;;;;;;14.90;6.70;;;;;;;5.66;73.26;97301.55;272441;1279;22223;-84
2023/03/14 05:19:02;;;;;;;15.60;7.70;;;;;;;5.40;73.90;97306.80;272322;1279;22395;-84
2023/03/14 05:25:49;;;;;;;22.20;10.50;;;;;;;5.41;74.82;97295.34;270455;1278;22387;-84
2023/03/14 05:32:22;;;;;;;19.40;8.40;;;;;;;5.49;75.60;97279.46;268751;1279;22647;-84
2023/03/14 05:38:48;;;;;;;10.70;5.50;;;;;;;5.59;76.08;97258.80;269053;1279;22563;-84
2023/03/14 05:45:09;;;;;;;11.10;6.10;;;;;;;5.84;76.13;97244.13;269380;1279;22511;-84
2023/03/14 05:51:43;;;;;;;46.10;11.80;;;;;;;6.13;76.83;97257.98;269400;1279;22505;-85
2023/03/14 05:58:07;;;;;;;13.60;5.70;;;;;;;6.16;77.24;97260.86;270990;1279;23527;-85
2023/03/14 06:04:39;;;;;;;15.60;6.80;;;;;;;6.33;77.32;97254.59;270261;1279;23251;-84
2023/03/14 06:10:43;;;;;;;11.50;5.10;;;;;;;6.58;77.65;97255.42;269584;1279;22463;-83
2023/03/14 06:17:27;;;;;;;12.10;4.70;;;;;;;6.74;77.64;97246.08;272254;1279;22226;-84
2023/03/14 06:23:49;;;;;;;12.90;6.60;;;;;;;7.08;78.37;97235.57;271286;1275;25377;-83
2023/03/14 06:29:53;;;;;;;14.00;6.00;;;;;;;7.56;78.63;97238.16;272251;1279;23025;-84
2023/03/14 06:35:55;;;;;;;12.40;5.80;;;;;;;7.84;78.55;97238.16;272264;1280;23080;-84
2023/03/14 06:42:38;;;;;;;11.60;5.70;;;;;;;8.14;78.57;97222.88;272447;1285;23091;-85
2023/03/14 06:49:21;;;;;;;9.90;4.30;;;;;;;8.53;78.23;97217.65;272316;1282;23209;-84
2023/03/14 06:55:43;;;;;;;11.80;4.80;;;;;;;8.93;77.87;97201.89;270875;1279;23106;-85
2023/03/14 07:01:46;;;;;;;14.80;5.60;;;;;;;9.42;78.35;97198.41;271307;1279;22657;-85
2023/03/14 07:07:50;;;;;;;7.80;4.10;;;;;;;9.85;78.02;97193.07;271727;1279;24311;-84
2023/03/14 07:13:53;;;;;;;14.10;4.80;;;;;;;10.25;76.89;97185.89;271197;1269;22373;-84
2023/03/14 07:19:59;;;;;;;13.50;6.30;;;;;;;10.64;77.30;97188.12;272059;1264;22195;-84
2023/03/14 07:26:06;;;;;;;22.10;9.40;;;;;;;11.06;76.81;97191.26;273040;1270;22303;-85
2023/03/14 07:32:09;;;;;;;22.40;7.50;;;;;;;11.46;75.80;97190.05;271921;1270;24473;-84
2023/03/14 07:38:36;;;;;;;19.20;6.60;;;;;;;11.82;75.90;97181.14;271167;1259;22576;-84
2023/03/14 07:45:11;;;;;;;16.30;6.00;;;;;;;12.07;75.18;97177.52;272349;1272;23065;-85
2023/03/14 07:51:16;;;;;;;19.20;7.00;;;;;;;12.21;74.15;97179.50;273477;1275;22189;-84
2023/03/14 07:57:18;;;;;;;17.20;6.70;;;;;;;12.43;73.57;97190.25;273534;1278;22193;-84
2023/03/14 08:04:06;;;;;;;15.50;6.70;;;;;;;12.95;72.84;97197.61;273347;1272;22165;-83
2023/03/14 08:10:09;;;;;;;18.00;7.90;;;;;;;13.56;71.74;97197.48;273578;1262;22222;-83
2023/03/14 08:16:53;;;;;;;19.30;7.80;;;;;;;13.84;70.92;97204.96;273742;1277;22533;-85
2023/03/14 08:23:51;;;;;;;17.70;6.60;;;;;;;13.80;70.42;97201.56;273436;1272;23289;-83
2023/03/14 08:29:53;;;;;;;24.50;7.40;;;;;;;13.74;69.06;97208.50;272203;1278;23176;-84
2023/03/14 08:35:58;;;;;;;11.60;3.40;;;;;;;13.93;68.96;97192.80;273497;1270;23695;-83
2023/03/14 08:42:00;;;;;;;5.50;2.80;;;;;;;14.21;67.23;97179.06;273017;1266;24202;-84
2023/03/14 08:48:36;;;;;;;7.00;3.00;;;;;;;14.39;66.44;97180.30;272923;1269;22230;-84
2023/03/14 09:01:32;;;;;;;5.00;2.60;;;;;;;14.66;64.96;97197.50;270127;1269;25252;-84
2023/03/14 09:08:00;;;;;;;6.20;2.40;;;;;;;14.64;62.36;97215.11;272930;1272;22193;-84
2023/03/14 09:14:32;;;;;;;;;;;;;;;14.49;60.80;97225.67;273816;1277;22471;-83
2023/03/14 09:20:50;;;;;;;8.10;2.50;;;;;;;14.49;60.55;97217.73;273686;1269;22224;-84
2023/03/14 09:26:52;;;;;;;5.40;2.70;;;;;;;14.54;59.85;97216.23;272361;1257;22316;-83
2023/03/14 09:32:56;;;;;;;3.70;2.20;;;;;;;14.71;59.34;97226.23;273270;1270;22195;-84
2023/03/14 09:39:41;;;;;;;6.10;2.80;;;;;;;15.01;59.22;97226.29;273425;1276;22195;-84
2023/03/14 09:45:45;;;;;;;5.80;2.40;;;;;;;15.34;58.96;97235.42;273162;1270;22619;-84
2023/03/14 09:51:49;;;;;;;4.40;2.20;;;;;;;15.46;58.15;97235.50;270304;1269;22380;-83
2023/03/14 09:57:58;;;;;;;5.10;2.60;;;;;;;15.61;57.78;97245.04;270553;1270;23257;-84
2023/03/14 10:04:44;;;;;;;4.20;2.50;;;;;;;16.08;56.62;97246.98;270074;1269;22683;-84
2023/03/14 10:11:05;;;;;;;4.50;2.50;;;;;;;16.66;55.75;97258.33;269920;1266;22495;-85
2023/03/14 10:17:17;;;;;;;6.30;3.00;;;;;;;17.33;55.57;97266.80;270971;1269;23468;-85
2023/03/14 10:23:32;;;;;;;4.20;2.30;;;;;;;17.90;54.44;97267.93;272868;1273;22965;-84
2023/03/14 10:29:34;;;;;;;3.50;2.00;;;;;;;17.87;53.11;97262.63;273542;1262;23441;-85
2023/03/14 10:35:36;;;;;;;9.60;5.80;;;;;;;17.75;52.47;97262.95;272872;1269;23243;-85
2023/03/14 10:42:04;;;;;;;5.20;2.40;;;;;;;17.70;51.99;97265.05;272063;1269;22398;-84
2023/03/14 10:48:19;;;;;;;6.20;2.60;;;;;;;17.67;52.35;97261.58;271708;1270;22630;-84
2023/03/14 10:54:23;;;;;;;4.10;1.90;;;;;;;17.46;51.45;97249.73;273165;1256;22371;-83
2023/03/14 11:00:46;;;;;;;5.30;2.40;;;;;;;17.01;50.59;97243.27;273609;1259;22422;-84
2023/03/14 11:07:06;;;;;;;6.80;2.20;;;;;;;16.67;51.07;97238.40;273787;1272;22956;-85
2023/03/14 11:13:25;;;;;;;6.30;2.30;;;;;;;16.44;51.28;97239.48;273144;1270;24951;-84
2023/03/14 11:20:18;;;;;;;8.50;2.90;;;;;;;16.04;52.09;97240.67;273682;1272;23237;-84
2023/03/14 11:26:44;;;;;;;11.70;3.40;;;;;;;15.74;52.81;97242.51;273445;1273;22397;-84
2023/03/14 11:33:37;;;;;;;6.40;2.70;;;;;;;15.52;52.84;97229.52;272629;1270;22555;-85
2023/03/14 11:40:00;;;;;;;4.80;3.10;;;;;;;15.37;53.16;97221.07;273700;1264;22295;-84
2023/03/14 11:46:07;;;;;;;8.00;3.10;;;;;;;15.25;53.73;97221.44;271293;1258;23757;-84
2023/03/14 11:52:56;;;;;;;10.80;2.50;;;;;;;15.11;53.87;97225.38;270764;1269;22638;-84
2023/03/14 11:59:02;;;;;;;9.90;3.00;;;;;;;14.92;53.84;97225.08;271347;1270;23422;-84
2023/03/14 12:05:49;;;;;;;9.50;3.00;;;;;;;14.80;54.00;97227.23;271659;1262;22387;-84
2023/03/14 12:11:56;;;;;;;8.50;3.40;;;;;;;14.71;53.78;97227.70;273793;1260;23126;-84
2023/03/14 12:18:38;;;;;;;5.10;2.40;;;;;;;14.66;54.05;97223.24;273602;1275;22271;-84
2023/03/14 12:25:21;;;;;;;7.20;2.90;;;;;;;14.62;54.15;97214.85;273727;1260;22943;-84
2023/03/14 12:32:15;;;;;;;8.60;2.50;;;;;;;14.57;54.41;97201.91;273771;1274;22258;-85
2023/03/14 12:38:35;;;;;;;8.90;2.90;;;;;;;14.56;55.24;97198.97;273704;1270;23623;-84
2023/03/14 12:45:28;;;;;;;13.20;4.70;;;;;;;14.70;55.70;97190.45;273747;1273;22937;-83
2023/03/14 12:51:43;;;;;;;7.70;2.70;;;;;;;14.85;55.09;97184.89;273515;1272;22214;-85
2023/03/14 12:57:56;;;;;;;6.20;2.60;;;;;;;14.86;54.88;97189.25;273338;1260;22204;-84
2023/03/14 13:04:04;;;;;;;6.60;2.60;;;;;;;14.74;54.94;97196.05;273780;1270;22277;-83
2023/03/14 13:10:07;;;;;;;6.60;2.80;;;;;;;14.56;55.27;97197.62;273442;1275;22248;-84
2023/03/14 13:16:40;;;;;;;6.10;2.60;;;;;;;14.41;55.75;97206.74;273483;1273;22384;-84
2023/03/14 13:23:02;;;;;;;4.30;2.30;;;;;;;14.28;56.07;97213.06;273194;1273;23738;-85
2023/03/14 13:29:16;;;;;;;7.30;2.50;;;;;;;14.18;56.58;97217.37;270733;1269;22563;-84
2023/03/14 13:35:47;;;;;;;6.50;3.00;;;;;;;14.07;57.04;97225.40;271526;1270;22427;-84
2023/03/14 13:41:49;;;;;;;3.90;2.40;;;;;;;13.96;57.72;97229.13;271228;1270;24340;-83
2023/03/14 13:47:51;;;;;;;9.10;2.40;;;;;;;13.86;58.09;97239.10;270713;1269;23177;-83
2023/03/14 13:54:14;;;;;;;5.20;2.40;;;;;;;13.76;58.25;97247.50;272984;1272;22234;-84
2023/03/14 14:00:20;;;;;;;7.40;3.10;;;;;;;13.64;58.69;97260.15;273632;1273;23720;-83
2023/03/14 14:06:57;;;;;;;5.80;2.60;;;;;;;13.54;58.96;97273.48;273505;1273;22196;-84
2023/03/14 14:13:03;;;;;;;7.90;2.90;;;;;;;13.42;59.47;97275.01;273463;1270;22898;-84
2023/03/14 14:19:05;;;;;;;5.40;3.10;;;;;;;13.28;59.95;97272.25;273451;1270;22216;-84
2023/03/14 14:25:14;;;;;;;7.90;3.70;;;;;;;13.14;60.65;97274.20;273755;1274;23891;-84
2023/03/14 14:31:24;;;;;;;7.00;3.80;;;;;;;12.99;61.27;97271.05;271399;1263;22675;-83
2023/03/14 14:38:14;;;;;;;6.10;3.50;;;;;;;12.84;61.98;97263.51;269354;1269;22556;-84
2023/03/14 14:44:37;;;;;;;7.60;4.60;;;;;;;12.60;63.67;97275.27;271293;1270;22621;-84
2023/03/14 14:51:42;;;;;;;9.00;4.10;;;;;;;12.30;65.11;97273.89;270055;1269;22530;-84
2023/03/14 14:57:53;;;;;;;11.80;4.90;;;;;;;11.99;66.32;97273.10;271005;1262;22216;-85
2023/03/14 15:03:56;;;;;;;9.50;4.80;;;;;;;11.84;66.90;97273.90;273709;1277;22215;-85
2023/03/14 15:09:57;;;;;;;12.60;5.90;;;;;;;11.72;67.69;97282.37;272832;1270;22470;-85
2023/03/14 15:16:40;;;;;;;11.30;6.50;;;;;;;11.63;68.32;97291.18;271879;1269;22873;-85
2023/03/14 15:23:27;;;;;;;11.60;6.30;;;;;;;11.50;69.16;97283.98;273593;1270;22386;-84
2023/03/14 15:29:47;;;;;;;7.90;5.10;;;;;;;11.41;69.96;97291.20;273250;1263;22297;-84
2023/03/14 15:35:49;;;;;;;8.30;5.10;;;;;;;11.32;71.07;97295.83;272715;1274;22384;-84
2023/03/14 15:42:35;;;;;;;10.30;3.90;;;;;;;11.28;71.56;97305.52;272973;1275;22216;-85
2023/03/14 15:49:04;;;;;;;9.00;3.50;;;;;;;11.23;72.06;97315.33;272898;1280;22306;-85
2023/03/14 15:55:05;;;;;;;9.50;3.40;;;;;;;11.16;72.82;97319.38;270759;1273;23538;-84
2023/03/14 16:01:11;;;;;;;7.40;3.70;;;;;;;11.05;73.78;97317.05;269676;1274;23146;-84
2023/03/14 16:07:21;;;;;;;8.70;4.40;;;;;;;10.95;74.53;97316.45;273006;1278;22272;-84
2023/03/14 16:13:43;;;;;;;7.10;3.80;;;;;;;10.83;75.48;97322.05;272843;1273;22199;-85
2023/03/14 16:20:25;;;;;;;7.20;3.80;;;;;;;10.71;75.87;97328.10;272493;1273;22216;-83
2023/03/14 16:26:35;;;;;;;10.60;4.00;;;;;;;10.61;76.25;97335.39;271745;1273;22282;-84
2023/03/14 16:32:38;;;;;;;11.50;5.30;;;;;;;10.55;77.17;97336.04;272291;1275;23277;-85
2023/03/14 16:38:57;;;;;;;10.10;5.20;;;;;;;10.47;77.92;97327.00;272808;1274;22217;-85
2023/03/14 16:44:59;;;;;;;12.90;6.10;;;;;;;10.40;78.68;97328.44;268237;1275;5464150;-85
2023/03/14 16:51:01;;;;;;;14.50;6.70;;;;;;;10.33;79.31;97331.83;269932;1272;22553;-85
2023/03/14 16:57:24;;;;;;;21.90;9.40;;;;;;;10.26;79.46;97336.77;269259;1265;22401;-84
2023/03/14 17:03:26;;;;;;;13.60;6.90;;;;;;;10.12;79.61;97321.27;269585;1273;22578;-85
2023/03/14 17:09:30;;;;;;;9.80;5.80;;;;;;;10.04;80.16;97319.31;268998;1276;22534;-85
2023/03/14 17:15:54;;;;;;;14.70;8.90;;;;;;;9.95;80.40;97303.73;269877;1262;22926;-84
2023/03/14 17:21:56;;;;;;;17.40;9.50;;;;;;;9.92;82.21;97270.42;272649;1275;23262;-84
2023/03/14 17:27:57;;;;;;;15.10;9.30;;;;;;;9.94;84.47;97254.39;272409;1272;22208;-84
2023/03/14 17:33:59;;;;;;;16.50;9.70;;;;;;;9.99;85.66;97226.28;272759;1274;22340;-84
2023/03/14 17:40:51;;;;;;;17.20;10.10;;;;;;;10.07;87.61;97212.35;272437;1274;22222;-84
2023/03/14 17:46:54;;;;;;;18.90;9.30;;;;;;;10.09;87.75;97213.26;272653;1279;22427;-83
2023/03/14 17:52:56;;;;;;;19.30;11.00;;;;;;;9.95;86.84;97268.50;271711;1274;22543;-83
2023/03/14 17:58:59;;;;;;;16.60;9.90;;;;;;;9.89;86.59;97263.73;269331;1273;22580;-84
2023/03/14 18:05:01;;;;;;;15.90;9.50;;;;;;;9.88;86.88;97287.88;271253;1273;22506;-84
2023/03/14 18:11:05;;;;;;;15.60;9.10;;;;;;;9.87;86.51;97293.60;270173;1274;22633;-83
2023/03/14 18:17:12;;;;;;;16.50;8.90;;;;;;;9.82;86.74;97300.46;270578;1273;23837;-83
2023/03/14 18:23:42;;;;;;;17.50;9.60;;;;;;;9.77;86.76;97309.83;270385;1275;22369;-83
2023/03/14 18:29:44;;;;;;;13.90;8.10;;;;;;;9.74;86.48;97306.66;270868;1276;22524;-83
2023/03/14 18:35:46;;;;;;;14.30;8.30;;;;;;;9.71;86.39;97301.78;269652;1274;25478;-83
2023/03/14 18:42:13;;;;;;;23.50;12.70;;;;;;;9.61;86.81;97299.87;270429;1264;22294;-83
2023/03/14 18:49:03;;;;;;;19.20;10.80;;;;;;;9.41;87.25;97311.17;269867;1273;22531;-84
2023/03/14 18:56:51;;;;;;;20.20;11.60;;;;;;;9.23;87.72;97319.02;270367;1273;25214;-82
2023/03/14 19:03:13;;;;;;;19.00;11.30;;;;;;;9.09;87.83;97325.23;270880;1276;23512;-83
2023/03/14 19:09:16;;;;;;;24.50;12.30;;;;;;;8.96;88.12;97329.27;270606;1273;26024;-86
2023/03/14 19:16:04;;;;;;;22.90;11.80;;;;;;;8.77;88.05;97332.71;270975;1260;22307;-84
2023/03/14 19:22:27;;;;;;;19.90;11.30;;;;;;;8.59;88.54;97341.27;272247;1273;23478;-83
2023/03/14 19:28:33;;;;;;;22.90;12.40;;;;;;;8.37;88.46;97346.19;271023;1274;22266;-83
2023/03/14 19:34:35;;;;;;;24.40;13.10;;;;;;;8.16;88.58;97353.29;271822;1273;23388;-83
2023/03/14 19:40:38;;;;;;;24.10;14.90;;;;;;;7.95;88.56;97363.44;270942;1273;22608;-83
2023/03/14 19:47:04;;;;;;;37.80;19.50;;;;;;;7.77;89.49;97369.19;270823;1267;22535;-83
2023/03/14 19:53:09;;;;;;;60.00;28.20;;;;;;;7.68;89.97;97371.09;272728;1264;22251;-83
2023/03/14 19:59:11;;;;;;;46.10;22.40;;;;;;;7.44;89.78;97379.10;272127;1273;24249;-84
2023/03/14 20:05:13;;;;;;;37.60;17.10;;;;;;;7.20;90.24;97375.02;272309;1273;22589;-83
2023/03/14 20:11:39;;;;;;;25.50;14.20;;;;;;;7.13;90.44;97376.36;272025;1273;22113;-83
2023/03/14 20:18:02;;;;;;;33.40;17.20;;;;;;;7.11;90.84;97378.63;270357;1273;24228;-83
2023/03/14 20:24:27;;;;;;;32.30;16.80;;;;;;;6.99;90.95;97387.10;270418;1274;22646;-84
2023/03/14 20:30:29;;;;;;;29.60;17.20;;;;;;;6.84;91.28;97393.63;272218;1264;22382;-84
2023/03/14 20:37:12;;;;;;;32.70;18.60;;;;;;;6.70;91.31;97398.29;272825;1273;22403;-84
2023/03/14 20:43:34;;;;;;;28.90;14.80;;;;;;;6.50;91.32;97405.02;273047;1257;23236;-83
2023/03/14 20:50:16;;;;;;;16.10;8.40;;;;;;;6.44;92.00;97410.06;272289;1263;22664;-84
2023/03/14 20:57:21;;;;;;;13.40;7.10;;;;;;;6.54;92.07;97415.96;271170;1262;23273;-83
2023/03/14 21:04:03;;;;;;;9.60;3.90;;;;;;;6.74;92.27;97416.63;272730;1273;22628;-84
2023/03/14 21:10:08;;;;;;;6.10;2.90;;;;;;;6.96;92.38;97410.42;272653;1273;22336;-84
2023/03/14 21:16:10;;;;;;;5.60;2.50;;;;;;;7.10;92.28;97413.53;272631;1273;22221;-83
2023/03/14 21:22:52;;;;;;;6.30;2.90;;;;;;;7.21;91.87;97422.31;271776;1259;22465;-85
2023/03/14 21:28:53;;;;;;;6.10;2.90;;;;;;;7.37;91.63;97433.86;272268;1276;22319;-85
2023/03/14 21:35:35;;;;;;;6.70;2.60;;;;;;;7.41;91.38;97435.36;270821;1261;22557;-83
2023/03/14 21:42:26;;;;;;;6.10;2.80;;;;;;;7.44;91.09;97431.30;270045;1276;22267;-83
2023/03/14 21:49:08;;;;;;;7.40;2.90;;;;;;;7.53;90.80;97437.11;269806;1276;22576;-84
2023/03/14 21:55:30;;;;;;;7.30;2.90;;;;;;;7.39;90.38;97452.39;271137;1270;22981;-84
2023/03/14 22:02:12;;;;;;;6.80;3.00;;;;;;;7.24;90.48;97461.64;273115;1276;23050;-84
2023/03/14 22:08:16;;;;;;;5.70;2.70;;;;;;;7.13;90.43;97466.94;269923;1265;22729;-84
2023/03/14 22:14:17;;;;;;;4.20;2.00;;;;;;;7.05;90.83;97475.34;269516;1273;23310;-84
2023/03/14 22:20:39;;;;;;;4.90;2.00;;;;;;;7.03;91.08;97484.81;269636;1273;22212;-85
2023/03/14 22:26:41;;;;;;;4.90;2.10;;;;;;;7.07;91.50;97501.61;272995;1273;22200;-85
2023/03/14 22:32:43;;;;;;;3.70;1.70;;;;;;;7.15;92.06;97506.28;272702;1270;22513;-82
2023/03/14 22:39:26;;;;;;;3.80;1.80;;;;;;;7.37;92.13;97503.71;273098;1275;22927;-82
2023/03/14 22:45:57;;;;;;;5.40;2.90;;;;;;;7.68;91.78;97502.14;273912;1260;22931;-84
2023/03/14 22:52:39;;;;;;;5.40;2.50;;;;;;;7.96;91.61;97510.02;273956;1269;22271;-84
2023/03/14 22:58:58;;;;;;;8.60;3.50;;;;;;;8.14;91.71;97501.72;274021;1256;23479;-83
2023/03/14 23:05:00;;;;;;;5.80;2.60;;;;;;;8.21;91.50;97508.48;274032;1262;22364;-83
2023/03/14 23:11:03;;;;;;;3.00;1.70;;;;;;;8.22;91.33;97524.77;274044;1270;22848;-84
2023/03/14 23:17:05;;;;;;;3.00;1.80;;;;;;;8.26;91.23;97533.49;274009;1269;22226;-83
2023/03/14 23:23:27;;;;;;;4.80;2.00;;;;;;;8.33;91.28;97538.52;274022;1257;22193;-84
2023/03/14 23:29:30;;;;;;;2.90;1.90;;;;;;;8.37;91.37;97543.90;273501;1269;22216;-83
2023/03/14 23:35:55;;;;;;;4.30;1.90;;;;;;;8.40;91.21;97556.90;273603;1261;22160;-84
2023/03/14 23:42:01;;;;;;;5.60;2.90;;;;;;;8.41;91.42;97570.13;273871;1269;22775;-83
2023/03/14 23:48:32;;;;;;;6.50;5.00;;;;;;;8.60;91.58;97584.34;273859;1269;22327;-83
2023/03/14 23:54:34;;;;;;;8.60;6.40;;;;;;;8.88;91.22;97607.76;271480;1257;22567;-83
